Time;durP1;ratioP1;P1;durP2;ratioP2;P2;SDS_P1;SDS_P2;PMS_P1;PMS_P2;Temp;Humidity;BMP_temperature;BMP_pressure;BME280_temperature;BME280_humidity;BME280_pressure;Samples;Min_cycle;Max_cycle;Signal;HPM_P1;HPM_P2
2022/12/29 00:01:02;;;;;;;49.20;29.80;;;;;;;0.68;76.69;97894.47;104894;1322;22909;-85
2022/12/29 00:03:30;;;;;;;32.10;28.80;;;;;;;0.38;76.90;97895.63;104955;1324;22113;-85
2022/12/29 00:06:00;;;;;;;30.20;27.20;;;;;;;0.24;76.96;97889.27;104975;1312;22221;-84
2022/12/29 00:08:40;;;;;;;31.90;28.50;;;;;;;0.17;77.23;97890.19;105296;1324;22247;-86
2022/12/29 00:11:15;;;;;;;32.60;27.70;;;;;;;0.19;77.34;97886.19;105367;1324;22986;-87
2022/12/29 00:16:31;;;;;;;32.10;28.60;;;;;;;0.29;77.44;97880.38;104881;1327;22783;-86
2022/12/29 00:19:00;;;;;;;32.80;29.20;;;;;;;0.30;77.51;97873.18;104778;1327;22218;-85
2022/12/29 00:35:23;;;;;;;24.10;21.60;;;;;;;0.48;78.00;97876.68;104954;1326;22301;-88
2022/12/29 00:46:11;;;;;;;28.80;25.70;;;;;;;0.94;77.94;97871.58;105429;1312;23061;-87
2022/12/29 00:51:33;;;;;;;36.80;33.00;;;;;;;1.05;78.12;97864.52;104954;1326;22205;-86
2022/12/29 00:54:01;;;;;;;28.70;25.80;;;;;;;1.08;77.92;97862.66;105317;1320;22186;-85
2022/12/29 00:56:29;;;;;;;30.40;27.30;;;;;;;1.08;77.90;97862.17;105150;1320;22236;-84
2022/12/29 00:59:05;;;;;;;28.70;25.80;;;;;;;1.05;77.81;97856.88;104923;1327;22739;-85
2022/12/29 01:01:34;;;;;;;28.30;25.30;;;;;;;1.00;77.56;97862.25;104825;1326;22082;-85
2022/12/29 01:04:04;;;;;;;30.70;27.60;;;;;;;0.98;77.63;97857.34;105275;1320;22160;-89
2022/12/29 01:06:32;;;;;;;38.80;35.20;;;;;;;0.89;77.69;97850.66;105142;1315;22271;-89
2022/12/29 01:15:31;;;;;;;34.80;31.20;;;;;;;0.78;78.25;97850.60;104941;1327;22799;-90
2022/12/29 01:17:59;;;;;;;37.00;33.10;;;;;;;0.76;78.26;97847.91;104786;1327;22337;-87
2022/12/29 01:20:28;;;;;;;45.40;40.80;;;;;;;0.76;78.13;97846.09;104957;1326;22313;-88
2022/12/29 01:22:57;;;;;;;31.10;27.90;;;;;;;0.70;78.04;97847.30;104965;1327;22226;-87
2022/12/29 01:25:25;;;;;;;27.90;24.90;;;;;;;0.60;78.09;97842.66;104916;1327;22221;-89
2022/12/29 01:27:53;;;;;;;24.20;21.70;;;;;;;0.65;78.61;97841.70;105296;1319;22202;-86
2022/12/29 01:30:21;;;;;;;21.20;18.20;;;;;;;0.78;78.62;97842.05;105335;1320;22277;-89
2022/12/29 01:32:49;;;;;;;22.50;20.30;;;;;;;0.96;78.84;97843.48;104824;1327;22207;-89
2022/12/29 01:35:19;;;;;;;20.30;18.20;;;;;;;1.11;78.70;97845.40;104927;1326;22358;-88
2022/12/29 01:37:47;;;;;;;25.20;21.70;;;;;;;1.24;78.88;97848.29;104863;1327;22190;-87
2022/12/29 01:40:15;;;;;;;24.40;21.70;;;;;;;1.34;78.40;97848.20;105170;1320;22260;-88
2022/12/29 01:42:44;;;;;;;23.30;20.90;;;;;;;1.42;78.55;97847.31;104903;1327;22266;-88
2022/12/29 01:45:15;;;;;;;33.10;21.30;;;;;;;1.49;78.77;97838.23;104924;1326;22834;-87
2022/12/29 01:47:50;;;;;;;23.00;20.60;;;;;;;1.57;78.66;97833.22;104858;1327;22100;-86
2022/12/29 01:50:39;;;;;;;22.60;20.20;;;;;;;1.66;78.49;97834.34;104961;1326;22218;-85
2022/12/29 01:53:15;;;;;;;22.80;20.50;;;;;;;1.75;78.68;97829.61;105427;1308;22107;-84
2022/12/29 01:55:58;;;;;;;23.60;21.10;;;;;;;1.82;78.60;97825.55;105350;1319;22061;-86
2022/12/29 01:58:33;;;;;;;23.30;19.90;;;;;;;1.92;78.40;97821.45;105177;1320;22105;-86
2022/12/29 02:01:02;;;;;;;21.30;19.10;;;;;;;2.02;78.41;97818.41;104863;1327;22208;-85
2022/12/29 02:03:32;;;;;;;24.50;22.00;;;;;;;2.11;78.50;97819.36;104912;1327;22761;-85
2022/12/29 02:06:03;;;;;;;24.20;21.60;;;;;;;2.15;78.18;97813.54;104960;1327;22103;-86
2022/12/29 02:08:31;;;;;;;28.00;23.50;;;;;;;2.15;78.51;97809.61;105060;1327;22100;-86
2022/12/29 02:11:00;;;;;;;26.10;23.80;;;;;;;2.18;78.25;97813.41;105137;1327;22108;-87
2022/12/29 02:13:29;;;;;;;30.90;27.90;;;;;;;2.17;78.00;97816.33;105154;1329;22224;-86
2022/12/29 02:16:12;;;;;;;30.90;27.70;;;;;;;2.14;77.94;97807.78;104956;1327;22153;-88
2022/12/29 02:18:54;;;;;;;26.90;24.20;;;;;;;2.11;78.09;97805.07;105011;1326;22136;-88
2022/12/29 02:22:00;;;;;;;30.00;26.90;;;;;;;2.08;77.95;97809.63;105390;1304;22104;-87
2022/12/29 02:24:43;;;;;;;23.80;21.40;;;;;;;1.95;77.10;97806.05;104934;1327;22176;-87
2022/12/29 02:27:52;;;;;;;21.10;18.90;;;;;;;1.88;77.54;97804.17;104963;1326;22193;-86
2022/12/29 02:30:30;;;;;;;21.40;19.10;;;;;;;1.78;77.36;97796.06;104931;1327;22266;-87
2022/12/29 02:32:59;;;;;;;24.80;22.30;;;;;;;1.79;77.67;97792.90;104870;1327;22241;-87
2022/12/29 02:35:48;;;;;;;23.90;21.30;;;;;;;1.80;77.82;97795.10;105168;1320;22072;-87
2022/12/29 02:38:42;;;;;;;21.30;19.20;;;;;;;1.73;77.52;97794.08;104956;1327;22857;-88
2022/12/29 02:41:23;;;;;;;23.30;21.00;;;;;;;1.58;77.53;97797.69;104931;1327;22101;-88
2022/12/29 02:44:09;;;;;;;26.90;24.10;;;;;;;1.50;77.59;97799.48;104965;1327;22126;-87
2022/12/29 02:46:51;;;;;;;27.20;24.60;;;;;;;1.44;77.95;97791.25;104979;1327;22131;-88
2022/12/29 02:49:32;;;;;;;30.30;27.40;;;;;;;1.44;78.03;97788.61;104924;1327;23156;-90
2022/12/29 02:52:06;;;;;;;37.70;33.90;;;;;;;1.44;77.97;97788.97;104922;1327;22101;-89
2022/12/29 02:54:41;;;;;;;31.70;28.70;;;;;;;1.46;78.06;97791.14;105171;1314;22033;-89
2022/12/29 02:57:29;;;;;;;27.40;24.80;;;;;;;1.51;77.99;97789.77;105368;1320;22375;-89
2022/12/29 03:00:16;;;;;;;27.80;25.30;;;;;;;1.60;78.17;97778.23;104991;1325;22947;-89
2022/12/29 03:02:55;;;;;;;26.90;24.30;;;;;;;1.60;77.93;97776.21;105015;1327;22124;-89
2022/12/29 03:06:16;;;;;;;31.40;28.50;;;;;;;1.52;77.85;97773.08;105075;1326;22207;-90
2022/12/29 03:08:59;;;;;;;26.80;24.20;;;;;;;1.44;77.94;97775.49;104937;1318;22170;-91
2022/12/29 03:17:53;;;;;;;26.20;23.60;;;;;;;1.03;78.29;97765.82;104949;1326;22237;-88
2022/12/29 03:20:27;;;;;;;29.20;26.50;;;;;;;0.97;78.37;97770.56;104895;1326;22171;-88
2022/12/29 03:23:03;;;;;;;27.50;24.90;;;;;;;0.88;78.61;97771.31;104787;1327;22122;-88
2022/12/29 03:25:40;;;;;;;32.60;29.50;;;;;;;0.80;79.18;97765.77;104742;1326;22225;-88
2022/12/29 03:28:16;;;;;;;32.40;29.20;;;;;;;0.74;79.29;97758.86;105329;1319;22279;-89
2022/12/29 03:30:46;;;;;;;34.90;31.40;;;;;;;0.70;79.07;97774.55;104788;1330;22087;-89
2022/12/29 03:33:20;;;;;;;30.60;27.70;;;;;;;0.60;79.68;97781.09;104903;1322;22201;-89
2022/12/29 03:35:52;;;;;;;30.00;26.90;;;;;;;0.52;79.53;97781.23;104941;1327;22212;-88
2022/12/29 03:38:34;;;;;;;32.40;29.20;;;;;;;0.54;79.63;97777.44;104837;1322;22125;-88
2022/12/29 03:41:07;;;;;;;33.70;30.30;;;;;;;0.61;79.66;97771.58;105478;1318;22230;-89
2022/12/29 03:43:38;;;;;;;32.80;29.30;;;;;;;0.67;79.59;97758.91;104876;1327;22203;-88
2022/12/29 03:46:06;;;;;;;26.20;23.60;;;;;;;0.75;79.75;97749.33;104939;1322;22136;-88
2022/12/29 03:48:34;;;;;;;22.30;20.00;;;;;;;0.83;80.03;97758.11;104922;1327;22194;-88
2022/12/29 03:51:03;;;;;;;34.30;31.00;;;;;;;0.89;79.88;97773.55;104857;1326;22314;-87
2022/12/29 03:53:32;;;;;;;29.50;26.70;;;;;;;0.81;80.23;97776.12;104960;1326;22216;-88
2022/12/29 03:56:00;;;;;;;27.30;24.40;;;;;;;0.69;80.37;97791.23;104871;1327;22792;-89
2022/12/29 03:58:29;;;;;;;27.90;25.10;;;;;;;0.58;80.74;97785.31;104879;1322;22100;-89
2022/12/29 04:01:09;;;;;;;26.90;24.40;;;;;;;0.62;80.72;97776.73;104950;1327;22085;-89
2022/12/29 04:03:38;;;;;;;32.90;29.70;;;;;;;0.70;80.79;97777.67;104952;1327;22768;-86
2022/12/29 04:06:07;;;;;;;30.30;27.60;;;;;;;0.75;80.32;97784.45;105381;1320;22090;-88
2022/12/29 04:08:53;;;;;;;30.50;27.60;;;;;;;0.79;80.22;97776.92;104873;1327;22213;-87
2022/12/29 04:11:21;;;;;;;31.20;28.20;;;;;;;0.81;80.20;97765.63;104878;1327;22234;-88
2022/12/29 04:13:55;;;;;;;29.40;26.50;;;;;;;0.86;80.06;97761.98;105129;1322;22121;-89
2022/12/29 04:16:25;;;;;;;25.00;22.60;;;;;;;0.94;80.09;97755.70;104701;1327;22447;-89
2022/12/29 04:18:53;;;;;;;25.30;22.60;;;;;;;1.04;80.11;97745.21;105319;1317;22184;-87
2022/12/29 04:21:21;;;;;;;28.40;25.60;;;;;;;1.11;79.92;97735.70;104909;1327;22268;-87
2022/12/29 04:23:49;;;;;;;30.70;27.60;;;;;;;1.14;79.96;97733.83;104870;1325;22187;-88
2022/12/29 04:26:17;;;;;;;27.60;24.90;;;;;;;1.12;80.12;97741.25;104908;1327;22141;-87
2022/12/29 04:28:58;;;;;;;29.20;26.30;;;;;;;0.96;80.04;97739.86;104824;1329;22241;-87
2022/12/29 04:31:43;;;;;;;;;;;;;;;0.80;80.05;97732.71;104790;1327;22254;-88
2022/12/29 04:34:11;;;;;;;30.10;26.90;;;;;;;0.75;80.06;97726.42;104873;1327;22307;-88
2022/12/29 04:36:39;;;;;;;36.10;32.40;;;;;;;0.77;80.15;97716.91;104847;1322;22113;-88
2022/12/29 04:39:08;;;;;;;36.20;32.80;;;;;;;0.80;80.11;97721.41;104901;1327;22506;-87
2022/12/29 04:41:38;;;;;;;32.70;29.50;;;;;;;0.80;80.08;97717.54;104855;1328;22201;-87
2022/12/29 04:44:08;;;;;;;29.80;26.80;;;;;;;0.75;80.23;97720.42;104915;1333;22204;-87
2022/12/29 04:46:39;;;;;;;30.60;27.50;;;;;;;0.58;80.17;97718.58;104800;1330;22281;-88
2022/12/29 04:49:27;;;;;;;30.00;27.00;;;;;;;0.45;80.19;97720.48;104884;1325;22232;-87
2022/12/29 04:52:15;;;;;;;29.50;26.50;;;;;;;0.38;80.17;97724.86;104692;1333;22155;-87
2022/12/29 04:54:46;;;;;;;26.20;23.60;;;;;;;0.36;80.22;97720.11;104913;1326;22178;-87
2022/12/29 04:57:18;;;;;;;25.80;23.20;;;;;;;0.31;80.08;97715.04;104850;1331;22228;-87
2022/12/29 04:59:50;;;;;;;27.40;24.80;;;;;;;0.29;80.25;97714.52;105066;1326;22165;-86
2022/12/29 05:02:18;;;;;;;27.50;24.90;;;;;;;0.17;80.57;97716.73;104970;1327;22103;-88
2022/12/29 05:04:49;;;;;;;31.90;29.00;;;;;;;0.13;80.70;97717.41;104902;1329;22280;-87
2022/12/29 05:07:18;;;;;;;29.40;25.90;;;;;;;0.13;80.60;97708.74;104931;1325;22194;-88
2022/12/29 05:09:48;;;;;;;28.50;25.70;;;;;;;0.03;80.65;97711.23;104780;1331;22210;-88
2022/12/29 05:12:16;;;;;;;25.60;23.20;;;;;;;-0.00;80.71;97715.61;104976;1327;22228;-89
2022/12/29 05:14:58;;;;;;;25.90;23.20;;;;;;;0.00;80.93;97719.48;104880;1332;22288;-88
2022/12/29 05:21:09;;;;;;;28.90;26.20;;;;;;;0.02;81.18;97727.84;104974;1326;22259;-87
2022/12/29 05:23:38;;;;;;;30.90;27.90;;;;;;;0.08;81.19;97729.11;104934;1328;22139;-88
2022/12/29 05:26:06;;;;;;;27.40;24.80;;;;;;;0.10;80.88;97727.67;104944;1324;22913;-88
2022/12/29 05:29:07;;;;;;;34.20;30.50;;;;;;;0.11;81.06;97724.83;105150;1315;22181;-90
2022/12/29 05:31:35;;;;;;;32.30;28.80;;;;;;;0.14;81.12;97723.94;104985;1327;22094;-88
2022/12/29 05:34:05;;;;;;;25.40;22.90;;;;;;;0.19;81.00;97726.10;104944;1324;22221;-89
2022/12/29 05:36:33;;;;;;;23.00;20.00;;;;;;;0.27;81.02;97719.56;104739;1332;22247;-90
2022/12/29 05:39:07;;;;;;;21.70;19.50;;;;;;;0.34;81.04;97712.49;104884;1327;22258;-89
2022/12/29 05:41:36;;;;;;;25.10;22.40;;;;;;;0.38;81.02;97719.20;104972;1329;22259;-89
2022/12/29 05:44:16;;;;;;;27.50;25.00;;;;;;;0.38;80.99;97719.83;104950;1332;22301;-89
2022/12/29 05:46:53;;;;;;;29.40;26.60;;;;;;;0.31;80.90;97716.95;104991;1309;22099;-89
2022/12/29 05:49:45;;;;;;;28.10;25.30;;;;;;;0.18;80.88;97710.98;104906;1327;22258;-88
2022/12/29 05:53:23;;;;;;;32.10;28.90;;;;;;;0.07;81.08;97706.36;104754;1333;22176;-88
2022/12/29 05:55:51;;;;;;;26.00;23.20;;;;;;;-0.06;81.05;97701.52;104910;1321;22147;-88
2022/12/29 05:58:20;;;;;;;25.00;22.50;;;;;;;-0.06;81.25;97708.23;104890;1325;22188;-87
2022/12/29 06:00:48;;;;;;;27.40;24.70;;;;;;;-0.06;81.34;97703.73;104800;1327;22859;-89
2022/12/29 06:03:17;;;;;;;30.10;27.00;;;;;;;-0.13;81.92;97706.63;105456;1319;22196;-89
2022/12/29 06:05:46;;;;;;;28.50;25.60;;;;;;;-0.19;81.82;97698.34;104950;1326;22238;-86
2022/12/29 06:08:15;;;;;;;30.10;27.20;;;;;;;-0.22;81.63;97695.20;104879;1330;22239;-89
2022/12/29 06:10:44;;;;;;;32.40;29.10;;;;;;;-0.30;81.93;97696.32;104955;1327;22284;-86
2022/12/29 06:13:12;;;;;;;27.90;24.70;;;;;;;-0.39;81.93;97701.99;104887;1327;22243;-85
2022/12/29 06:15:43;;;;;;;41.30;36.60;;;;;;;-0.43;81.97;97696.58;104988;1319;23028;-89
2022/12/29 06:18:12;;;;;;;26.90;23.50;;;;;;;-0.43;82.00;97698.95;104901;1327;22186;-87
2022/12/29 06:20:48;;;;;;;41.30;29.90;;;;;;;-0.37;82.19;97702.09;104859;1327;22853;-88
2022/12/29 06:23:18;;;;;;;46.30;34.60;;;;;;;-0.36;82.54;97703.40;104827;1327;22347;-91
2022/12/29 06:25:48;;;;;;;28.50;25.40;;;;;;;-0.40;82.52;97696.35;104868;1330;22786;-89
2022/12/29 06:28:21;;;;;;;29.40;26.40;;;;;;;-0.45;82.55;97697.17;104961;1327;22177;-89
2022/12/29 06:30:49;;;;;;;26.50;23.60;;;;;;;-0.46;82.52;97692.12;104779;1331;22129;-90
2022/12/29 06:33:20;;;;;;;30.20;27.30;;;;;;;-0.45;82.69;97684.88;104883;1327;22210;-92
2022/12/29 06:35:49;;;;;;;32.50;29.10;;;;;;;-0.41;82.67;97678.77;105000;1327;22180;-89
2022/12/29 06:38:17;;;;;;;34.50;29.60;;;;;;;-0.32;82.80;97672.33;104897;1327;22839;-88
2022/12/29 06:40:45;;;;;;;37.80;30.50;;;;;;;-0.20;82.71;97665.53;104946;1327;22245;-89
2022/12/29 06:43:33;;;;;;;37.70;33.50;;;;;;;-0.10;82.99;97670.95;105024;1327;22198;-90
2022/12/29 06:46:23;;;;;;;33.20;29.90;;;;;;;-0.20;83.40;97667.39;104981;1327;22198;-87
2022/12/29 06:48:51;;;;;;;40.90;36.70;;;;;;;-0.27;83.32;97660.05;105470;1319;22104;-87
2022/12/29 06:51:19;;;;;;;39.10;35.20;;;;;;;-0.31;83.38;97662.24;105445;1320;22169;-87
2022/12/29 06:53:47;;;;;;;31.80;28.30;;;;;;;-0.37;83.67;97670.17;105043;1325;22129;-85
2022/12/29 06:56:15;;;;;;;30.90;27.70;;;;;;;-0.40;84.06;97672.86;105461;1315;22850;-88
2022/12/29 06:58:43;;;;;;;30.60;27.60;;;;;;;-0.39;84.08;97682.31;105156;1326;22182;-89
2022/12/29 07:01:11;;;;;;;33.00;29.80;;;;;;;-0.30;84.12;97684.77;105567;1309;23032;-89
2022/12/29 07:03:44;;;;;;;38.70;34.50;;;;;;;-0.20;84.10;97686.77;104973;1327;22268;-89
2022/12/29 07:06:12;;;;;;;28.90;25.60;;;;;;;-0.09;84.25;97679.48;105572;1312;22153;-89
2022/12/29 07:08:40;;;;;;;22.40;20.10;;;;;;;0.08;84.24;97681.17;105357;1317;22215;-88
2022/12/29 07:11:08;;;;;;;25.10;22.60;;;;;;;0.28;84.27;97681.59;105091;1327;22218;-90
2022/12/29 07:13:36;;;;;;;29.70;26.70;;;;;;;0.51;84.31;97685.86;104992;1330;22852;-90
2022/12/29 07:16:06;;;;;;;27.30;24.30;;;;;;;0.69;84.05;97684.95;104906;1327;22190;-88
2022/12/29 07:18:35;;;;;;;39.00;33.70;;;;;;;0.95;84.30;97682.86;104929;1327;22296;-88
2022/12/29 07:21:03;;;;;;;25.60;23.00;;;;;;;1.16;84.39;97682.39;104916;1327;22185;-86
2022/12/29 07:23:31;;;;;;;28.20;25.20;;;;;;;1.34;84.09;97680.15;105066;1323;22681;-88
2022/12/29 07:26:12;;;;;;;28.60;25.40;;;;;;;1.49;84.04;97677.55;105517;1311;22108;-87
2022/12/29 07:28:41;;;;;;;24.50;21.70;;;;;;;1.66;84.01;97673.19;105132;1327;22820;-89
2022/12/29 07:31:15;;;;;;;24.90;22.30;;;;;;;1.79;83.86;97676.02;104976;1327;22186;-89
2022/12/29 07:33:44;;;;;;;;;;;;;;;1.94;84.02;97671.93;105383;1311;22356;-85
2022/12/29 07:36:13;;;;;;;24.30;22.00;;;;;;;2.09;83.93;97667.11;105350;1309;261202;-88
2022/12/29 07:38:42;;;;;;;28.40;25.60;;;;;;;2.27;84.03;97671.29;105010;1327;22187;-87
2022/12/29 07:41:12;;;;;;;30.60;27.80;;;;;;;2.40;83.42;97668.92;105285;1318;22065;-90
2022/12/29 07:43:41;;;;;;;30.40;27.50;;;;;;;2.52;83.45;97669.52;105172;1328;21940;-90
2022/12/29 07:46:28;;;;;;;30.70;27.50;;;;;;;2.65;83.49;97669.88;105270;1326;22165;-87
2022/12/29 07:49:16;;;;;;;26.10;23.60;;;;;;;2.77;83.50;97665.89;105924;1295;22205;-87
2022/12/29 07:51:44;;;;;;;25.30;22.80;;;;;;;2.87;83.13;97670.27;105311;1308;22824;-88
2022/12/29 07:54:12;;;;;;;29.00;25.60;;;;;;;2.94;83.06;97671.56;105706;1309;22177;-90
2022/12/29 07:56:40;;;;;;;37.90;34.10;;;;;;;2.97;82.94;97672.06;105291;1326;22259;-90
2022/12/29 07:59:08;;;;;;;31.50;28.20;;;;;;;2.96;82.59;97676.48;105126;1327;22138;-89
2022/12/29 08:01:36;;;;;;;38.60;34.10;;;;;;;2.88;81.60;97681.09;105118;1321;23004;-90
2022/12/29 08:04:05;;;;;;;37.20;33.00;;;;;;;2.80;81.20;97689.80;105550;1315;22123;-88
2022/12/29 08:06:33;;;;;;;49.70;44.60;;;;;;;2.75;81.19;97698.23;105576;1313;22217;-89
2022/12/29 08:09:01;;;;;;;41.40;37.40;;;;;;;2.59;80.71;97704.58;105070;1327;22248;-89
2022/12/29 08:11:42;;;;;;;36.90;33.40;;;;;;;2.51;81.44;97702.21;105012;1326;22087;-90
2022/12/29 08:14:11;;;;;;;24.30;21.80;;;;;;;2.58;81.71;97707.16;105122;1327;22175;-90
2022/12/29 08:16:39;;;;;;;21.30;18.80;;;;;;;2.67;82.00;97700.55;104985;1325;22304;-90
2022/12/29 08:19:09;;;;;;;30.30;26.80;;;;;;;2.84;82.34;97701.34;105109;1327;22268;-89
2022/12/29 08:21:38;;;;;;;35.20;31.60;;;;;;;3.06;82.35;97699.65;105096;1327;22084;-88
2022/12/29 08:24:09;;;;;;;40.90;33.40;;;;;;;3.25;82.26;97695.84;105142;1318;22224;-89
2022/12/29 08:26:37;;;;;;;34.70;31.30;;;;;;;3.42;82.21;97701.23;105048;1327;22129;-87
2022/12/29 08:29:05;;;;;;;45.30;41.00;;;;;;;3.56;82.10;97709.25;105645;1308;22817;-88
2022/12/29 08:31:33;;;;;;;34.50;31.00;;;;;;;3.70;82.05;97706.98;105533;1317;22301;-88
2022/12/29 08:34:03;;;;;;;29.80;26.90;;;;;;;3.84;81.96;97702.63;105599;1317;22840;-90
2022/12/29 08:36:31;;;;;;;30.80;27.80;;;;;;;4.00;81.94;97688.58;105588;1317;22236;-88
2022/12/29 08:38:59;;;;;;;35.80;32.00;;;;;;;4.15;81.46;97673.09;104946;1327;22201;-88
2022/12/29 08:41:27;;;;;;;33.40;30.00;;;;;;;4.27;81.13;97671.70;105014;1327;22283;-87
2022/12/29 08:43:57;;;;;;;34.90;31.10;;;;;;;4.40;81.11;97668.79;105123;1326;22116;-89
2022/12/29 08:46:26;;;;;;;31.90;28.10;;;;;;;4.51;81.32;97668.95;105017;1327;22110;-89
2022/12/29 08:48:54;;;;;;;30.00;26.80;;;;;;;4.63;81.15;97675.17;105510;1314;22110;-89
2022/12/29 08:51:23;;;;;;;28.00;25.10;;;;;;;4.72;80.50;97675.33;104998;1321;22222;-89
2022/12/29 08:53:52;;;;;;;26.90;24.10;;;;;;;4.81;80.29;97675.19;104873;1328;22210;-90
2022/12/29 08:56:21;;;;;;;27.50;24.40;;;;;;;4.90;80.42;97675.09;105017;1327;22195;-88
2022/12/29 08:58:52;;;;;;;27.50;24.40;;;;;;;4.97;80.39;97675.02;104977;1327;22203;-89
2022/12/29 09:01:21;;;;;;;26.20;23.60;;;;;;;5.05;80.28;97676.40;104922;1322;22129;-88
2022/12/29 09:03:51;;;;;;;24.80;22.10;;;;;;;5.12;80.13;97673.73;105597;1317;23041;-91
2022/12/29 09:06:39;;;;;;;25.10;21.80;;;;;;;5.19;80.09;97675.92;105152;1327;22317;-91
2022/12/29 09:09:07;;;;;;;26.30;23.50;;;;;;;5.27;79.98;97673.49;105447;1315;22145;-89
2022/12/29 09:11:35;;;;;;;29.30;26.30;;;;;;;5.35;79.54;97675.09;104992;1327;22268;-92
2022/12/29 09:14:04;;;;;;;31.90;28.30;;;;;;;5.42;79.38;97674.92;105014;1325;22267;-94
2022/12/29 09:16:33;;;;;;;28.00;25.10;;;;;;;5.53;79.34;97675.00;105091;1327;22183;-93
2022/12/29 09:19:02;;;;;;;26.40;23.50;;;;;;;5.66;79.02;97675.61;104991;1304;22375;-92
2022/12/29 09:21:30;;;;;;;37.90;33.90;;;;;;;5.77;78.55;97672.32;105687;1304;22301;-88
2022/12/29 09:23:58;;;;;;;42.40;38.00;;;;;;;5.87;78.59;97676.88;105105;1327;22235;-90
2022/12/29 09:26:26;;;;;;;40.30;36.10;;;;;;;5.96;76.15;97677.66;105514;1317;22134;-91
2022/12/29 09:28:54;;;;;;;33.20;29.90;;;;;;;6.06;75.97;97676.92;105210;1327;22128;-87
2022/12/29 09:31:22;;;;;;;31.70;28.10;;;;;;;6.17;75.65;97672.34;104933;1327;22710;-87
2022/12/29 09:33:50;;;;;;;32.60;28.40;;;;;;;6.27;76.10;97672.92;105592;1309;22260;-88
2022/12/29 09:36:18;;;;;;;34.80;31.20;;;;;;;6.36;75.75;97677.59;104997;1327;22193;-87
2022/12/29 09:38:47;;;;;;;35.30;31.50;;;;;;;6.45;76.19;97671.16;105507;1314;22207;-89
2022/12/29 09:41:29;;;;;;;34.70;31.00;;;;;;;6.53;75.33;97663.30;105055;1324;22123;-88
2022/12/29 09:44:03;;;;;;;34.30;30.80;;;;;;;6.60;75.52;97657.52;105665;1317;22097;-87
2022/12/29 09:46:39;;;;;;;36.70;32.30;;;;;;;6.68;75.20;97655.64;105616;1305;22832;-87
2022/12/29 09:49:21;;;;;;;35.10;31.40;;;;;;;6.75;74.38;97659.02;104978;1327;22225;-88
2022/12/29 09:51:53;;;;;;;33.70;30.00;;;;;;;6.84;75.14;97655.52;105110;1324;22166;-90
2022/12/29 09:54:32;;;;;;;36.40;32.60;;;;;;;6.93;74.92;97658.89;105763;1294;22187;-92
2022/12/29 09:57:00;;;;;;;38.30;34.50;;;;;;;7.01;73.70;97659.71;105184;1327;22208;-91
2022/12/29 09:59:44;;;;;;;37.90;34.10;;;;;;;7.12;73.63;97662.30;105629;1317;22096;-91
2022/12/29 10:02:23;;;;;;;32.60;29.20;;;;;;;7.25;73.44;97664.00;105184;1326;22328;-90
2022/12/29 10:04:52;;;;;;;30.40;27.40;;;;;;;7.36;72.56;97663.52;104994;1327;22241;-89
2022/12/29 10:08:02;;;;;;;32.20;28.70;;;;;;;7.47;73.19;97655.20;104963;1323;22217;-90
2022/12/29 10:10:48;;;;;;;28.20;25.00;;;;;;;7.66;71.54;97655.80;104556;1333;22924;-90
2022/12/29 10:13:46;;;;;;;32.60;26.80;;;;;;;7.81;72.49;97656.50;104460;1333;22186;-91
2022/12/29 10:16:20;;;;;;;26.60;23.70;;;;;;;7.94;72.18;97648.84;104596;1326;22255;-90
2022/12/29 10:19:04;;;;;;;28.50;23.90;;;;;;;8.01;71.62;97640.70;104488;1336;22153;-85
2022/12/29 10:21:55;;;;;;;34.20;25.50;;;;;;;8.06;70.41;97641.01;104548;1333;22168;-86
2022/12/29 10:24:26;;;;;;;30.90;24.80;;;;;;;8.10;69.84;97640.16;104562;1332;22320;-89
2022/12/29 10:26:58;;;;;;;36.20;29.90;;;;;;;8.13;70.55;97641.23;104766;1310;22122;-91
2022/12/29 10:29:39;;;;;;;31.60;27.30;;;;;;;8.17;69.07;97640.70;104510;1336;22273;-91
2022/12/29 10:32:42;;;;;;;33.60;25.60;;;;;;;8.21;69.83;97634.38;104791;1326;22862;-90
2022/12/29 10:35:19;;;;;;;32.60;28.10;;;;;;;8.24;68.37;97630.59;104556;1332;22229;-89
2022/12/29 10:37:55;;;;;;;35.00;26.90;;;;;;;8.27;68.41;97632.52;104540;1332;22240;-87
2022/12/29 10:40:29;;;;;;;35.80;31.50;;;;;;;8.30;68.33;97630.42;104551;1333;22173;-88
2022/12/29 10:42:58;;;;;;;36.10;32.00;;;;;;;8.33;67.85;97629.48;104616;1333;22162;-88
2022/12/29 10:45:30;;;;;;;42.30;37.50;;;;;;;8.36;66.86;97632.94;105017;1326;22132;-86
2022/12/29 10:48:11;;;;;;;40.00;35.30;;;;;;;8.37;65.90;97631.67;104834;1327;22196;-86
2022/12/29 10:50:42;;;;;;;32.80;29.30;;;;;;;8.38;66.76;97625.02;105203;1317;22249;-85
2022/12/29 10:53:19;;;;;;;24.80;20.60;;;;;;;8.40;66.17;97624.35;105544;1317;22099;-87
2022/12/29 10:55:47;;;;;;;19.50;17.60;;;;;;;8.43;66.19;97627.11;105366;1315;22085;-87
2022/12/29 10:58:16;;;;;;;24.60;20.50;;;;;;;8.53;65.86;97625.99;104808;1328;22113;-87
2022/12/29 11:00:53;;;;;;;24.20;21.80;;;;;;;8.65;65.97;97627.42;105068;1326;22311;-86
2022/12/29 11:03:33;;;;;;;21.30;19.30;;;;;;;8.85;66.45;97623.23;104918;1322;22240;-86
2022/12/29 11:06:08;;;;;;;25.30;21.60;;;;;;;9.05;65.90;97620.41;104966;1327;22279;-85
2022/12/29 11:08:50;;;;;;;23.90;21.20;;;;;;;9.21;65.98;97618.64;105484;1308;22314;-85
2022/12/29 11:11:26;;;;;;;22.40;20.10;;;;;;;9.32;65.28;97609.08;104996;1327;22224;-85
2022/12/29 11:14:03;;;;;;;21.50;19.00;;;;;;;9.35;64.54;97608.81;104952;1327;22384;-86
2022/12/29 11:16:33;;;;;;;24.40;20.40;;;;;;;9.30;64.36;97605.20;105120;1327;22546;-86
2022/12/29 11:19:02;;;;;;;23.20;20.80;;;;;;;9.27;63.78;97610.52;104930;1327;22116;-87
2022/12/29 11:21:33;;;;;;;27.30;22.10;;;;;;;9.22;63.85;97610.18;104936;1322;22130;-89
2022/12/29 11:24:03;;;;;;;24.20;21.10;;;;;;;9.19;63.98;97616.80;105499;1312;22096;-85
2022/12/29 11:26:33;;;;;;;27.70;24.20;;;;;;;9.17;63.85;97623.23;105046;1322;22141;-92
2022/12/29 11:29:08;;;;;;;28.40;25.40;;;;;;;9.14;62.90;97626.29;105135;1314;22130;-89
2022/12/29 11:31:41;;;;;;;29.80;25.50;;;;;;;9.07;62.73;97625.45;105091;1321;22110;-88
2022/12/29 11:34:17;;;;;;;37.50;27.50;;;;;;;9.03;63.29;97617.55;105053;1328;22198;-89
2022/12/29 11:36:46;;;;;;;43.20;28.90;;;;;;;9.03;63.67;97626.26;105050;1324;22653;-88
2022/12/29 11:39:29;;;;;;;34.00;27.00;;;;;;;9.02;62.63;97626.61;105213;1326;22146;-88
2022/12/29 11:41:58;;;;;;;33.50;28.50;;;;;;;8.97;62.06;97630.98;105520;1318;22206;-88
2022/12/29 11:44:26;;;;;;;32.50;27.80;;;;;;;8.90;63.61;97631.21;105218;1325;22123;-89
2022/12/29 11:46:55;;;;;;;35.00;26.50;;;;;;;8.90;63.85;97628.42;105042;1326;22219;-88
2022/12/29 11:49:26;;;;;;;37.40;27.70;;;;;;;8.90;63.48;97627.07;104997;1327;22160;-89
2022/12/29 11:51:57;;;;;;;36.20;29.20;;;;;;;8.91;64.58;97619.97;105043;1327;22082;-90
2022/12/29 11:54:36;;;;;;;43.80;37.50;;;;;;;8.96;64.74;97620.81;105188;1324;22232;-91
2022/12/29 11:57:15;;;;;;;51.30;41.10;;;;;;;9.01;64.76;97615.98;105078;1326;22149;-90
2022/12/29 11:59:55;;;;;;;47.70;40.60;;;;;;;9.06;63.90;97617.35;105196;1327;22118;-90
2022/12/29 12:02:44;;;;;;;41.20;36.50;;;;;;;9.12;63.53;97618.59;105178;1326;22188;-89
2022/12/29 12:05:36;;;;;;;38.10;31.60;;;;;;;9.16;63.69;97619.96;104996;1326;22142;-89
2022/12/29 12:08:24;;;;;;;32.00;26.70;;;;;;;9.21;63.69;97620.15;104955;1327;22213;-90
2022/12/29 12:11:04;;;;;;;34.30;27.50;;;;;;;9.25;63.92;97622.08;104993;1326;22678;-89
2022/12/29 12:13:43;;;;;;;25.30;21.60;;;;;;;9.29;64.28;97620.17;105001;1312;22925;-90
2022/12/29 12:16:24;;;;;;;31.30;23.20;;;;;;;9.32;63.28;97618.50;104956;1327;22208;-89
2022/12/29 12:18:55;;;;;;;25.00;22.20;;;;;;;9.32;62.99;97620.05;104971;1327;22214;-87
2022/12/29 12:21:40;;;;;;;30.50;20.70;;;;;;;9.30;63.25;97616.92;105564;1317;22250;-88
2022/12/29 12:24:30;;;;;;;28.70;21.20;;;;;;;9.31;63.86;97617.51;104982;1319;22288;-88
2022/12/29 12:27:19;;;;;;;25.80;20.40;;;;;;;9.33;63.22;97619.49;105386;1313;22094;-90
2022/12/29 12:30:02;;;;;;;20.90;17.30;;;;;;;9.32;62.76;97618.66;105093;1327;22116;-89
2022/12/29 12:33:02;;;;;;;21.90;18.80;;;;;;;9.30;62.60;97620.63;105125;1324;22105;-89